Time;durP1;ratioP1;P1;durP2;ratioP2;P2;SDS_P1;SDS_P2;PMS_P1;PMS_P2;Temp;Humidity;BMP_temperature;BMP_pressure;BME280_temperature;BME280_humidity;BME280_pressure;Samples;Min_cycle;Max_cycle;Signal;HPM_P1;HPM_P2
2020/12/20 00:02:14;0.00;0.00;0.62;0.00;0.00;0.62;2.20;2.00;;;22.20;30.00;;;;;;2233982;62;20376;-68
2020/12/20 00:04:59;0.00;0.00;0.62;0.00;0.00;0.62;2.40;1.60;;;22.20;30.00;;;;;;2234119;62;20581;-69
2020/12/20 00:07:44;0.00;0.00;0.62;0.00;0.00;0.62;2.33;1.90;;;22.20;30.00;;;;;;2233601;62;20793;-67
2020/12/20 00:10:28;0.00;0.00;0.62;0.00;0.00;0.62;2.10;1.37;;;22.20;30.00;;;;;;2234172;62;20673;-68
2020/12/20 00:13:17;0.00;0.00;0.62;0.00;0.00;0.62;2.17;1.60;;;22.20;30.00;;;;;;2233864;62;20394;-68
2020/12/20 00:16:02;0.00;0.00;0.62;0.00;0.00;0.62;1.90;1.70;;;22.30;30.20;;;;;;2233773;62;20757;-68
2020/12/20 00:18:46;0.00;0.00;0.62;0.00;0.00;0.62;2.30;1.90;;;22.30;30.20;;;;;;2234231;62;20368;-68
2020/12/20 00:21:31;0.00;0.00;0.62;0.00;0.00;0.62;1.70;1.57;;;22.20;30.20;;;;;;2233985;62;20612;-67
2020/12/20 00:24:15;0.00;0.00;0.62;0.00;0.00;0.62;2.43;1.93;;;22.30;30.90;;;;;;2233881;62;20361;-70
2020/12/20 00:27:02;0.00;0.00;0.62;0.00;0.00;0.62;2.13;1.87;;;22.30;30.20;;;;;;2234148;62;20430;-70
2020/12/20 00:29:48;0.00;0.00;0.62;0.00;0.00;0.62;1.90;1.40;;;22.20;30.80;;;;;;2233966;62;20393;-67
2020/12/20 00:32:32;0.00;0.00;0.62;0.00;0.00;0.62;2.03;1.60;;;22.30;30.20;;;;;;2233949;62;20519;-67
2020/12/20 00:35:17;0.00;0.00;0.62;0.00;0.00;0.62;2.23;1.83;;;22.30;30.20;;;;;;2236671;62;20375;-69
2020/12/20 00:38:02;0.00;0.00;0.62;0.00;0.00;0.62;3.17;2.40;;;22.20;30.10;;;;;;2236148;62;20416;-70
2020/12/20 00:40:46;0.00;0.00;0.62;0.00;0.00;0.62;2.47;2.00;;;22.30;30.10;;;;;;2238019;62;20399;-68
2020/12/20 00:43:31;0.00;0.00;0.62;0.00;0.00;0.62;2.00;1.60;;;22.30;30.20;;;;;;2237764;62;20408;-68
2020/12/20 00:46:17;0.00;0.00;0.62;0.00;0.00;0.62;1.83;1.50;;;22.30;30.10;;;;;;2237606;62;20435;-69
2020/12/20 00:49:02;0.00;0.00;0.62;0.00;0.00;0.62;1.50;1.30;;;22.30;30.10;;;;;;2238034;62;20493;-70
2020/12/20 00:51:47;0.00;0.00;0.62;0.00;0.00;0.62;2.20;1.70;;;22.30;30.20;;;;;;2237639;62;20617;-70
2020/12/20 00:54:32;0.00;0.00;0.62;0.00;0.00;0.62;1.63;1.53;;;22.30;30.20;;;;;;2237293;62;20360;-67
2020/12/20 00:57:17;0.00;0.00;0.62;0.00;0.00;0.62;3.00;1.80;;;22.30;30.20;;;;;;2237512;62;20421;-68
2020/12/20 01:00:05;0.00;0.00;0.62;0.00;0.00;0.62;1.67;1.47;;;22.30;30.10;;;;;;2237174;62;20485;-68
2020/12/20 01:02:50;0.00;0.00;0.62;0.00;0.00;0.62;2.27;1.80;;;22.30;30.20;;;;;;2237933;62;20420;-70
2020/12/20 01:05:35;0.00;0.00;0.62;0.00;0.00;0.62;1.90;1.53;;;22.20;30.00;;;;;;2237212;62;20763;-70
2020/12/20 01:08:20;0.00;0.00;0.62;0.00;0.00;0.62;1.87;1.40;;;22.20;30.10;;;;;;2237387;62;20408;-68
2020/12/20 01:11:07;0.00;0.00;0.62;0.00;0.00;0.62;2.43;1.57;;;22.30;30.10;;;;;;2237440;62;20649;-69
2020/12/20 01:13:52;0.00;0.00;0.62;0.00;0.00;0.62;1.70;1.30;;;22.30;30.10;;;;;;2237213;62;20372;-69
2020/12/20 01:16:37;0.00;0.00;0.62;0.00;0.00;0.62;1.70;1.40;;;22.30;30.10;;;;;;2237298;62;20427;-68
2020/12/20 01:19:22;0.00;0.00;0.62;0.00;0.00;0.62;1.90;1.50;;;22.30;30.10;;;;;;2237494;62;20399;-70
2020/12/20 01:22:07;0.00;0.00;0.62;0.00;0.00;0.62;2.40;1.90;;;22.30;30.10;;;;;;2237140;62;20368;-68
2020/12/20 01:24:52;0.00;0.00;0.62;0.00;0.00;0.62;2.07;1.73;;;22.30;30.10;;;;;;2237440;62;20440;-70
2020/12/20 01:27:38;0.00;0.00;0.62;0.00;0.00;0.62;2.70;1.80;;;22.30;30.10;;;;;;2237228;62;20388;-67
2020/12/20 01:30:23;0.00;0.00;0.62;0.00;0.00;0.62;2.07;1.60;;;22.30;30.10;;;;;;2237192;62;20724;-69
2020/12/20 01:33:08;0.00;0.00;0.62;0.00;0.00;0.62;1.70;1.50;;;22.30;30.10;;;;;;2237442;62;20391;-67
2020/12/20 01:36:07;0.00;0.00;0.62;0.00;0.00;0.62;2.57;1.80;;;22.30;30.10;;;;;;2237211;62;20400;-70
2020/12/20 01:38:52;0.00;0.00;0.62;0.00;0.00;0.62;2.13;1.80;;;22.30;30.10;;;;;;2237465;62;20363;-66
2020/12/20 01:41:38;0.00;0.00;0.62;0.00;0.00;0.62;1.70;1.40;;;22.30;30.10;;;;;;2237377;62;20389;-71
2020/12/20 01:44:25;0.00;0.00;0.62;0.00;0.00;0.62;2.13;1.53;;;22.30;30.10;;;;;;2237019;62;20655;-71
2020/12/20 01:47:12;0.00;0.00;0.62;0.00;0.00;0.62;1.83;1.53;;;22.30;30.10;;;;;;2237818;62;20639;-68
2020/12/20 01:49:58;0.00;0.00;0.62;0.00;0.00;0.62;1.63;1.30;;;22.30;30.20;;;;;;2237546;62;20432;-69
2020/12/20 01:52:44;0.00;0.00;0.62;0.00;0.00;0.62;1.80;1.60;;;22.30;30.10;;;;;;2237208;62;20439;-69
2020/12/20 01:55:36;0.00;0.00;0.62;0.00;0.00;0.62;2.03;1.67;;;22.30;30.10;;;;;;2237338;62;20356;-70
2020/12/20 01:58:24;0.00;0.00;0.62;0.00;0.00;0.62;2.77;1.60;;;22.30;30.10;;;;;;2237507;62;20397;-71
2020/12/20 02:01:20;0.00;0.00;0.62;0.00;0.00;0.62;2.37;1.20;;;22.30;30.10;;;;;;2237380;62;20355;-68
2020/12/20 02:04:14;0.00;0.00;0.62;0.00;0.00;0.62;7.80;1.63;;;22.30;30.80;;;;;;2237433;62;20420;-66
2020/12/20 02:07:05;0.00;0.00;0.62;0.00;0.00;0.62;3.20;1.87;;;22.30;30.10;;;;;;2237182;62;20459;-69
2020/12/20 02:09:51;0.00;0.00;0.62;0.00;0.00;0.62;2.50;1.90;;;22.30;30.20;;;;;;2237506;62;20687;-68
2020/12/20 02:12:37;0.00;0.00;0.62;0.00;0.00;0.62;2.10;1.43;;;22.30;30.20;;;;;;2237575;62;20367;-70
2020/12/20 02:15:31;0.00;0.00;0.62;0.00;0.00;0.62;3.00;2.70;;;22.30;30.20;;;;;;2237024;62;20574;-68
2020/12/20 02:18:19;0.00;0.00;0.62;0.00;0.00;0.62;4.50;4.10;;;22.30;30.00;;;;;;2237563;62;20389;-66
2020/12/20 02:21:13;0.00;0.00;0.62;0.00;0.00;0.62;6.10;4.00;;;22.30;28.70;;;;;;2237423;62;20372;-68
2020/12/20 02:23:58;0.00;0.00;0.62;0.00;0.00;0.62;5.40;4.90;;;22.20;27.60;;;;;;2237586;62;20408;-67
2020/12/20 02:26:50;0.00;0.00;0.62;0.00;0.00;0.62;5.17;4.77;;;22.00;26.80;;;;;;2237240;62;20428;-71
2020/12/20 02:29:37;0.00;0.00;0.62;0.00;0.00;0.62;5.50;4.73;;;21.90;26.30;;;;;;2237198;62;20397;-68
2020/12/20 02:32:22;0.00;0.00;0.62;0.00;0.00;0.62;4.70;4.30;;;21.70;26.60;;;;;;2237377;62;20368;-68
2020/12/20 02:35:07;0.00;0.00;0.62;0.00;0.00;0.62;5.00;3.93;;;21.50;27.00;;;;;;2237301;62;20448;-68
2020/12/20 02:37:53;0.00;0.00;0.62;0.00;0.00;0.62;4.03;3.63;;;21.50;27.50;;;;;;2237205;62;20364;-68
2020/12/20 02:40:39;0.00;0.00;0.62;0.00;0.00;0.62;3.83;3.30;;;21.30;27.50;;;;;;2237381;62;20368;-69
2020/12/20 02:43:26;0.00;0.00;0.62;0.00;0.00;0.62;4.77;4.03;;;21.30;27.50;;;;;;2237238;62;20372;-68
2020/12/20 02:46:11;0.00;0.00;0.62;0.00;0.00;0.62;4.93;4.50;;;21.20;27.80;;;;;;2237294;62;20395;-68
2020/12/20 02:49:03;0.00;0.00;0.62;0.00;0.00;0.62;4.00;3.70;;;21.10;27.70;;;;;;2237378;62;20391;-69
2020/12/20 02:51:50;0.00;0.00;0.62;0.00;0.00;0.62;4.40;4.00;;;21.10;27.80;;;;;;2237062;62;20489;-68
2020/12/20 02:54:36;0.00;0.00;0.62;0.00;0.00;0.62;4.20;3.90;;;21.10;27.80;;;;;;2237338;62;20383;-68
2020/12/20 02:57:26;0.00;0.00;0.62;0.00;0.00;0.62;5.53;4.53;;;21.00;27.80;;;;;;2237250;62;20524;-68
2020/12/20 03:00:25;0.00;0.00;0.62;0.00;0.00;0.62;4.53;4.07;;;20.90;27.70;;;;;;2237183;62;20587;-68
2020/12/20 03:03:12;0.00;0.00;0.62;0.00;0.00;0.62;6.23;4.10;;;20.90;27.70;;;;;;2237386;62;20391;-67
2020/12/20 03:06:01;0.00;0.00;0.62;0.00;0.00;0.62;5.03;4.20;;;20.90;27.70;;;;;;2236965;62;20407;-69
2020/12/20 03:08:46;0.00;0.00;0.62;0.00;0.00;0.62;3.80;3.50;;;20.90;27.70;;;;;;2237398;62;20651;-66
2020/12/20 03:11:32;0.00;0.00;0.62;0.00;0.00;0.62;5.50;4.30;;;20.80;27.70;;;;;;2237292;62;20411;-68
2020/12/20 03:14:17;0.00;0.00;0.62;0.00;0.00;0.62;4.13;3.73;;;20.80;27.70;;;;;;2236953;62;20575;-68
2020/12/20 03:17:09;0.00;0.00;0.62;0.00;0.00;0.62;5.00;4.13;;;20.70;27.70;;;;;;2237316;62;20384;-68
2020/12/20 03:19:54;0.00;0.00;0.62;0.00;0.00;0.62;4.33;3.93;;;20.70;27.60;;;;;;2237283;62;20624;-68
2020/12/20 03:22:39;0.00;0.00;0.62;0.00;0.00;0.62;4.53;4.13;;;20.60;27.50;;;;;;2237122;62;20368;-68
2020/12/20 03:25:50;0.00;0.00;0.62;0.00;0.00;0.62;4.43;4.03;;;20.60;27.60;;;;;;2235713;62;20431;-68
2020/12/20 03:28:42;0.00;0.00;0.62;0.00;0.00;0.62;4.30;3.90;;;20.50;27.60;;;;;;2237390;62;20781;-68
2020/12/20 03:32:00;0.00;0.00;0.62;0.00;0.00;0.62;4.73;4.13;;;20.50;27.60;;;;;;2237313;62;20364;-67
2020/12/20 03:35:11;0.00;0.00;0.62;0.00;0.00;0.62;3.87;3.30;;;20.50;27.70;;;;;;2237456;62;20568;-67
2020/12/20 03:38:02;0.00;0.00;0.62;0.00;0.00;0.62;4.53;4.13;;;20.40;27.70;;;;;;2237894;62;20359;-67
2020/12/20 03:40:51;0.00;0.00;0.62;0.00;0.00;0.62;5.80;4.50;;;20.40;27.80;;;;;;2238039;62;20429;-67
2020/12/20 03:43:37;0.00;0.00;0.62;0.00;0.00;0.62;4.60;4.10;;;20.40;27.90;;;;;;2237698;62;20442;-67
2020/12/20 03:46:23;0.00;0.00;0.62;0.00;0.00;0.62;4.93;4.30;;;20.40;27.90;;;;;;2237786;62;20402;-67
2020/12/20 03:49:09;0.00;0.00;0.62;0.00;0.00;0.62;4.50;4.07;;;20.40;27.90;;;;;;2237935;62;20367;-68
2020/12/20 03:51:54;0.00;0.00;0.62;0.00;0.00;0.62;3.70;3.40;;;20.30;27.90;;;;;;2237673;62;20606;-67
2020/12/20 03:54:45;0.00;0.00;0.62;0.00;0.00;0.62;5.30;4.70;;;20.30;27.90;;;;;;2237817;62;20359;-68
2020/12/20 03:57:30;0.00;0.00;0.62;0.00;0.00;0.62;4.27;3.83;;;20.30;27.90;;;;;;2237606;62;20391;-68
2020/12/20 04:00:15;0.00;0.00;0.62;0.00;0.00;0.62;5.33;4.80;;;20.30;27.90;;;;;;2237889;62;20444;-67
2020/12/20 04:03:00;0.00;0.00;0.62;0.00;0.00;0.62;5.10;4.40;;;20.30;27.90;;;;;;2238252;62;20642;-68
2020/12/20 04:05:48;0.00;0.00;0.62;0.00;0.00;0.62;3.93;3.57;;;20.30;28.00;;;;;;2237422;62;20388;-68
2020/12/20 04:08:35;0.00;0.00;0.62;0.00;0.00;0.62;3.77;3.47;;;20.20;27.90;;;;;;2237883;62;20387;-67
2020/12/20 04:11:33;0.00;0.00;0.62;0.00;0.00;0.62;4.73;4.23;;;20.20;27.90;;;;;;2237781;62;20413;-68
2020/12/20 04:14:18;0.00;0.00;0.62;0.00;0.00;0.62;5.17;3.93;;;20.20;27.90;;;;;;2237554;62;20368;-67
2020/12/20 04:17:03;0.00;0.00;0.62;0.00;0.00;0.62;5.10;4.30;;;20.20;28.00;;;;;;2237802;62;20376;-67
2020/12/20 04:19:49;0.00;0.00;0.62;0.00;0.00;0.62;4.77;3.80;;;20.20;28.00;;;;;;2237537;62;20383;-67
2020/12/20 04:22:53;0.00;0.00;0.62;0.00;0.00;0.62;4.43;4.03;;;20.20;28.00;;;;;;2238217;62;20407;-68
2020/12/20 04:25:58;0.00;0.00;0.62;0.00;0.00;0.62;4.80;4.30;;;20.10;28.00;;;;;;2238040;62;20387;-68
2020/12/20 04:28:47;0.00;0.00;0.62;0.00;0.00;0.62;5.23;4.47;;;20.10;28.00;;;;;;2237551;62;20393;-67
2020/12/20 04:31:44;0.00;0.00;0.62;0.00;0.00;0.62;5.30;4.00;;;20.10;28.00;;;;;;2237694;62;20363;-67
2020/12/20 04:34:31;0.00;0.00;0.62;0.00;0.00;0.62;4.13;3.73;;;20.10;28.00;;;;;;2237432;62;20368;-68
2020/12/20 04:37:17;0.00;0.00;0.62;0.00;0.00;0.62;4.30;3.90;;;20.10;28.10;;;;;;2237769;62;20611;-67
2020/12/20 04:40:25;0.00;0.00;0.62;0.00;0.00;0.62;5.70;4.00;;;20.00;28.10;;;;;;2238156;62;20379;-68
2020/12/20 04:43:12;0.00;0.00;0.62;0.00;0.00;0.62;6.20;4.83;;;20.00;28.00;;;;;;2237490;62;20775;-68
2020/12/20 04:45:59;0.00;0.00;0.62;0.00;0.00;0.62;5.10;4.60;;;20.00;28.00;;;;;;2237579;62;20396;-67
2020/12/20 04:49:00;0.00;0.00;0.62;0.00;0.00;0.62;4.97;4.50;;;20.00;28.10;;;;;;2237600;62;20368;-67
2020/12/20 04:51:48;0.00;0.00;0.62;0.00;0.00;0.62;5.77;5.17;;;20.00;28.10;;;;;;2237646;62;20364;-67
2020/12/20 04:54:35;0.00;0.00;0.62;0.00;0.00;0.62;5.60;4.47;;;20.00;28.10;;;;;;2237661;62;20421;-67
2020/12/20 04:57:23;0.00;0.00;0.62;0.00;0.00;0.62;4.17;3.77;;;20.00;28.10;;;;;;2237360;62;20392;-67
2020/12/20 05:00:10;0.00;0.00;0.62;0.00;0.00;0.62;4.97;4.47;;;20.00;28.20;;;;;;2237652;62;20408;-67
2020/12/20 05:02:56;0.00;0.00;0.62;0.00;0.00;0.62;5.10;4.60;;;19.90;28.10;;;;;;2237688;62;20379;-67
2020/12/20 05:05:41;0.00;0.00;0.62;0.00;0.00;0.62;4.60;4.20;;;19.90;28.10;;;;;;2237240;62;20387;-67
2020/12/20 05:08:26;0.00;0.00;0.62;0.00;0.00;0.62;4.97;4.47;;;19.90;28.20;;;;;;2237729;62;20600;-67
2020/12/20 05:11:32;0.00;0.00;0.62;0.00;0.00;0.62;5.63;4.90;;;19.90;28.20;;;;;;2237623;62;20368;-68
2020/12/20 05:14:29;0.00;0.00;0.62;0.00;0.00;0.62;4.73;4.30;;;19.90;28.20;;;;;;2237591;62;20368;-67
2020/12/20 05:17:21;0.00;0.00;0.62;0.00;0.00;0.62;4.93;4.30;;;19.90;28.20;;;;;;2237635;62;20456;-67
2020/12/20 05:20:38;0.00;0.00;0.62;0.00;0.00;0.62;4.83;4.33;;;19.90;28.20;;;;;;2237794;62;20367;-67
2020/12/20 05:23:30;0.00;0.00;0.62;0.00;0.00;0.62;4.77;4.20;;;19.90;28.70;;;;;;2237658;62;20376;-68
2020/12/20 05:26:31;0.00;0.00;0.62;0.00;0.00;0.62;6.80;4.90;;;19.80;28.10;;;;;;2237312;62;20431;-67
2020/12/20 05:29:21;0.00;0.00;0.62;0.00;0.00;0.62;4.93;4.47;;;19.90;28.20;;;;;;2237660;62;20488;-67
2020/12/20 05:32:24;0.00;0.00;0.62;0.00;0.00;0.62;5.30;4.80;;;19.80;28.20;;;;;;2237584;62;20401;-68
2020/12/20 05:35:16;0.00;0.00;0.62;0.00;0.00;0.62;4.60;4.20;;;19.80;28.20;;;;;;2237327;62;20428;-67
2020/12/20 05:38:04;0.00;0.00;0.62;0.00;0.00;0.62;4.50;4.10;;;19.80;28.20;;;;;;2237681;62;20420;-67
2020/12/20 05:40:49;0.00;0.00;0.62;0.00;0.00;0.62;4.80;4.20;;;19.80;28.20;;;;;;2237724;62;20727;-67
2020/12/20 05:43:35;0.00;0.00;0.62;0.00;0.00;0.62;6.47;5.43;;;19.80;28.30;;;;;;2237710;62;20720;-67
2020/12/20 05:46:27;0.00;0.00;0.62;0.00;0.00;0.62;5.30;4.80;;;19.70;28.20;;;;;;2237638;62;20468;-66
2020/12/20 05:49:19;0.00;0.00;0.62;0.00;0.00;0.62;5.37;4.83;;;19.70;28.20;;;;;;2237536;62;20388;-68
2020/12/20 05:52:07;0.00;0.00;0.62;0.00;0.00;0.62;4.90;4.50;;;19.70;28.20;;;;;;2237713;62;20440;-66
2020/12/20 05:54:52;0.00;0.00;0.62;0.00;0.00;0.62;4.47;4.07;;;19.70;28.20;;;;;;2238026;62;20383;-67
2020/12/20 05:57:37;0.00;0.00;0.62;0.00;0.00;0.62;4.80;4.33;;;19.70;28.30;;;;;;2237778;62;20635;-67
2020/12/20 06:00:24;0.00;0.00;0.62;0.00;0.00;0.62;4.70;4.30;;;19.70;28.30;;;;;;2238093;62;20379;-69
2020/12/20 06:03:11;0.00;0.00;0.62;0.00;0.00;0.62;5.60;5.10;;;19.70;28.20;;;;;;2237976;62;20409;-67
2020/12/20 06:06:01;0.00;0.00;0.62;0.00;0.00;0.62;4.80;4.30;;;19.70;28.20;;;;;;2237951;62;20480;-67
2020/12/20 06:08:49;0.00;0.00;0.62;0.00;0.00;0.62;4.97;4.47;;;19.70;28.20;;;;;;2238086;62;20389;-67
2020/12/20 06:11:36;0.00;0.00;0.62;0.00;0.00;0.62;5.40;4.77;;;19.70;28.20;;;;;;2237708;62;20400;-67
2020/12/20 06:14:25;0.00;0.00;0.62;0.00;0.00;0.62;5.03;4.20;;;19.60;28.10;;;;;;2237551;62;20464;-67
2020/12/20 06:17:17;0.00;0.00;0.62;0.00;0.00;0.62;5.17;4.67;;;19.60;28.10;;;;;;2237666;62;20489;-68
2020/12/20 06:20:05;0.00;0.00;0.62;0.00;0.00;0.62;5.40;4.77;;;19.60;28.20;;;;;;2237570;62;20472;-69
2020/12/20 06:22:53;0.00;0.00;0.62;0.00;0.00;0.62;6.23;4.80;;;19.60;28.20;;;;;;2238074;62;20381;-69
2020/12/20 06:25:44;0.00;0.00;0.62;0.00;0.00;0.62;5.00;4.50;;;19.60;28.30;;;;;;2237563;62;20743;-68
2020/12/20 06:28:30;0.00;0.00;0.62;0.00;0.00;0.62;4.80;4.30;;;19.60;28.30;;;;;;2238106;62;20355;-68
2020/12/20 06:31:20;0.00;0.00;0.62;0.00;0.00;0.62;6.80;5.13;;;19.60;28.30;;;;;;2237950;62;20368;-67
2020/12/20 06:34:13;0.00;0.00;0.62;0.00;0.00;0.62;6.03;4.50;;;19.50;28.20;;;;;;2237720;62;20376;-67
2020/12/20 06:36:59;0.00;0.00;0.62;0.00;0.00;0.62;5.40;4.83;;;19.50;28.20;;;;;;2237970;62;20751;-67
2020/12/20 06:39:45;0.00;0.00;0.62;0.00;0.00;0.62;5.27;4.30;;;19.60;28.30;;;;;;2237908;62;20728;-67
2020/12/20 06:42:39;0.00;0.00;0.62;0.00;0.00;0.62;5.63;4.20;;;19.60;28.30;;;;;;2237787;62;20445;-67
2020/12/20 06:45:25;0.00;0.00;0.62;0.00;0.00;0.62;4.70;4.17;;;19.50;28.30;;;;;;2237838;62;20372;-68
2020/12/20 06:48:12;0.00;0.00;0.62;0.00;0.00;0.62;4.67;4.27;;;19.60;28.30;;;;;;2237728;62;20437;-68
2020/12/20 06:50:58;0.00;0.00;0.62;0.00;0.00;0.62;5.20;4.17;;;19.50;28.80;;;;;;2237884;62;20360;-68
2020/12/20 06:53:52;0.00;0.00;0.62;0.00;0.00;0.62;5.13;4.63;;;19.50;28.30;;;;;;2237915;62;20364;-68
2020/12/20 06:56:37;0.00;0.00;0.62;0.00;0.00;0.62;5.23;4.50;;;19.50;28.30;;;;;;2237669;62;20395;-66
2020/12/20 06:59:45;0.00;0.00;0.62;0.00;0.00;0.62;5.23;4.73;;;19.50;28.30;;;;;;2237924;62;20364;-68
2020/12/20 07:02:48;0.00;0.00;0.62;0.00;0.00;0.62;4.60;4.00;;;19.50;28.30;;;;;;2237677;62;20386;-68
2020/12/20 07:05:39;0.00;0.00;0.62;0.00;0.00;0.62;4.10;3.80;;;19.50;28.40;;;;;;2237780;62;20584;-68
2020/12/20 07:08:26;0.00;0.00;0.62;0.00;0.00;0.62;4.97;4.47;;;19.50;28.40;;;;;;2237911;62;20412;-68
2020/12/20 07:11:20;0.00;0.00;0.62;0.00;0.00;0.62;5.07;4.53;;;19.50;28.40;;;;;;2237660;62;20708;-68
2020/12/20 07:14:20;0.00;0.00;0.62;0.00;0.00;0.62;4.80;4.30;;;19.50;28.40;;;;;;2238614;62;20384;-68
2020/12/20 07:17:23;0.00;0.00;0.62;0.00;0.00;0.62;4.57;4.17;;;19.50;28.40;;;;;;2238613;62;20643;-68
2020/12/20 07:20:09;0.00;0.00;0.62;0.00;0.00;0.62;5.83;4.73;;;19.50;28.50;;;;;;2238519;62;20347;-68
2020/12/20 07:22:54;0.00;0.00;0.62;0.00;0.00;0.62;5.27;4.53;;;19.50;28.50;;;;;;2238585;62;20363;-68
2020/12/20 07:25:41;0.00;0.00;0.62;0.00;0.00;0.62;5.07;4.57;;;19.50;28.50;;;;;;2238168;62;20439;-68
2020/12/20 07:28:25;0.00;0.00;0.62;0.00;0.00;0.62;4.97;4.47;;;19.50;28.50;;;;;;2238570;62;20372;-68
2020/12/20 07:31:14;0.00;0.00;0.62;0.00;0.00;0.62;5.93;4.33;;;19.50;28.50;;;;;;2238520;62;20392;-68
2020/12/20 07:33:59;0.00;0.00;0.62;0.00;0.00;0.62;5.30;4.40;;;19.50;28.50;;;;;;2238347;62;20389;-68
2020/12/20 07:36:44;0.00;0.00;0.62;0.00;0.00;0.62;5.20;4.70;;;19.50;28.50;;;;;;2238482;62;20905;-68
2020/12/20 07:39:29;0.00;0.00;0.62;0.00;0.00;0.62;4.80;3.90;;;19.50;29.00;;;;;;2237705;62;20367;-68
2020/12/20 07:42:14;0.00;0.00;0.62;0.00;0.00;0.62;5.23;4.73;;;19.50;28.50;;;;;;2238331;62;20372;-68
2020/12/20 07:45:03;0.00;0.00;0.62;0.00;0.00;0.62;5.43;3.90;;;19.50;28.50;;;;;;2237633;62;20790;-68
2020/12/20 07:47:50;0.00;0.00;0.62;0.00;0.00;0.62;5.47;4.97;;;19.50;28.50;;;;;;2238058;62;20399;-68
2020/12/20 07:50:34;0.00;0.00;0.62;0.00;0.00;0.62;5.97;5.23;;;19.50;28.50;;;;;;2238255;62;20367;-68
2020/12/20 07:53:19;0.00;0.00;0.62;0.00;0.00;0.62;5.77;5.27;;;19.50;28.50;;;;;;2238353;62;20428;-68
2020/12/20 07:56:04;0.00;0.00;0.62;0.00;0.00;0.62;5.90;5.10;;;19.50;28.50;;;;;;2238084;62;20459;-69
2020/12/20 07:58:51;0.00;0.00;0.62;0.00;0.00;0.62;5.40;4.90;;;19.50;28.50;;;;;;2238321;62;20634;-68
2020/12/20 08:01:38;0.00;0.00;0.62;0.00;0.00;0.62;5.23;4.73;;;19.50;28.50;;;;;;2238308;62;20391;-68
2020/12/20 08:04:23;0.00;0.00;0.62;0.00;0.00;0.62;5.80;5.20;;;19.40;28.40;;;;;;2238157;62;20412;-68
2020/12/20 08:07:14;0.00;0.00;0.62;0.00;0.00;0.62;8.20;5.43;;;19.50;28.50;;;;;;2238270;62;20759;-67
2020/12/20 08:09:59;0.00;0.00;0.62;0.00;0.00;0.62;4.73;4.33;;;19.40;28.50;;;;;;2238002;62;20400;-67
2020/12/20 08:12:51;0.00;0.00;0.62;0.00;0.00;0.62;6.30;5.07;;;19.40;28.50;;;;;;2238233;62;20372;-67
2020/12/20 08:15:36;0.00;0.00;0.62;0.00;0.00;0.62;4.47;4.07;;;19.40;28.60;;;;;;2238065;62;20387;-68
2020/12/20 08:18:21;0.00;0.00;0.62;0.00;0.00;0.62;5.70;4.87;;;19.40;28.60;;;;;;2237971;62;20371;-67
2020/12/20 08:21:08;0.00;0.00;0.62;0.00;0.00;0.62;5.00;4.50;;;19.40;28.60;;;;;;2238268;62;20383;-67
2020/12/20 08:23:55;0.00;0.00;0.62;0.00;0.00;0.62;4.57;4.13;;;19.40;28.60;;;;;;2237673;62;20363;-67
2020/12/20 08:26:41;0.00;0.00;0.62;0.00;0.00;0.62;5.43;4.93;;;19.40;28.60;;;;;;2238132;62;20388;-67
2020/12/20 08:29:26;0.00;0.00;0.62;0.00;0.00;0.62;6.07;4.73;;;19.40;28.60;;;;;;2238232;62;20663;-69
2020/12/20 08:32:15;0.00;0.00;0.62;0.00;0.00;0.62;5.37;4.57;;;19.40;28.60;;;;;;2237869;62;20368;-66
2020/12/20 08:35:10;0.00;0.00;0.62;0.00;0.00;0.62;5.40;4.90;;;19.40;28.60;;;;;;2238096;62;20369;-68
2020/12/20 08:38:00;0.00;0.00;0.62;0.00;0.00;0.62;5.70;5.20;;;19.40;28.60;;;;;;2238226;62;20576;-68
2020/12/20 08:40:44;0.00;0.00;0.62;0.00;0.00;0.62;5.37;4.87;;;19.40;28.60;;;;;;2237974;62;20364;-67
2020/12/20 08:43:29;0.00;0.00;0.62;0.00;0.00;0.62;6.27;4.80;;;19.40;28.60;;;;;;2238143;62;20567;-67
2020/12/20 08:46:31;0.00;0.00;0.62;0.00;0.00;0.62;5.20;4.70;;;19.40;28.60;;;;;;2237782;62;20423;-67
2020/12/20 08:49:22;0.00;0.00;0.62;0.00;0.00;0.62;6.30;5.40;;;19.40;28.70;;;;;;2238186;62;20636;-68
2020/12/20 08:52:09;0.00;0.00;0.62;0.00;0.00;0.62;5.70;4.93;;;19.40;28.70;;;;;;2238085;62;20476;-68
2020/12/20 08:54:55;0.00;0.00;0.62;0.00;0.00;0.62;5.03;4.60;;;19.40;28.70;;;;;;2237817;62;20380;-66
2020/12/20 08:57:40;0.00;0.00;0.62;0.00;0.00;0.62;7.23;4.97;;;19.30;28.60;;;;;;2238040;62;20480;-68
2020/12/20 09:00:25;0.00;0.00;0.62;0.00;0.00;0.62;6.90;4.50;;;19.30;28.70;;;;;;2238091;62;20739;-68
2020/12/20 09:03:09;0.00;0.00;0.62;0.00;0.00;0.62;5.40;4.90;;;19.40;29.30;;;;;;2237963;62;20371;-68
2020/12/20 09:05:55;0.00;0.00;0.62;0.00;0.00;0.62;5.93;5.33;;;19.30;28.70;;;;;;2237926;62;20511;-69
2020/12/20 09:08:40;0.00;0.00;0.62;0.00;0.00;0.62;4.73;4.33;;;19.30;28.70;;;;;;2237894;62;20371;-67
2020/12/20 09:11:26;0.00;0.00;0.62;0.00;0.00;0.62;6.77;5.50;;;19.30;28.80;;;;;;2238049;62;20372;-68
2020/12/20 09:14:11;0.00;0.00;0.62;0.00;0.00;0.62;6.90;5.00;;;19.30;28.80;;;;;;2238022;62;20598;-69
2020/12/20 09:16:56;0.00;0.00;0.62;0.00;0.00;0.62;5.60;5.10;;;19.30;28.90;;;;;;2237785;62;20631;-68
2020/12/20 09:19:41;0.00;0.00;0.62;0.00;0.00;0.62;5.40;4.90;;;19.30;28.90;;;;;;2238023;62;20441;-67
2020/12/20 09:22:57;0.00;0.00;0.62;0.00;0.00;0.62;6.40;5.60;;;19.20;28.80;;;;;;2238068;62;20368;-68
2020/12/20 09:25:43;0.00;0.00;0.62;0.00;0.00;0.62;7.10;6.43;;;19.20;28.90;;;;;;2221333;62;20395;-68
2020/12/20 09:28:29;0.00;0.00;0.62;0.00;0.00;0.62;7.40;6.47;;;19.20;28.90;;;;;;2238002;62;20372;-69
2020/12/20 09:31:16;0.00;0.00;0.62;0.00;0.00;0.62;6.53;5.93;;;19.20;29.00;;;;;;2237615;62;20596;-66
2020/12/20 09:34:03;0.00;0.00;0.62;0.00;0.00;0.62;7.23;6.50;;;19.10;29.00;;;;;;2237917;62;20743;-67
2020/12/20 09:36:48;0.00;0.00;0.62;0.00;0.00;0.62;6.00;5.40;;;19.10;29.20;;;;;;2235623;56;20475;-70
2020/12/20 09:39:54;0.00;0.00;0.62;0.00;0.00;0.62;7.93;6.20;;;19.10;29.30;;;;;;2233357;62;20413;-64
2020/12/20 09:42:40;0.00;0.00;0.62;0.00;0.00;0.62;9.03;7.10;;;19.00;29.30;;;;;;2233989;62;20376;-62
2020/12/20 09:45:25;0.00;0.00;0.62;0.00;0.00;0.62;7.97;7.17;;;19.00;29.40;;;;;;2233712;62;20364;-63
2020/12/20 09:48:10;0.00;0.00;0.62;0.00;0.00;0.62;7.17;5.93;;;18.90;29.40;;;;;;2234010;62;20429;-67
2020/12/20 09:50:55;0.00;0.00;0.62;0.00;0.00;0.62;10.43;6.67;;;18.90;29.40;;;;;;2234002;62;20373;-66
2020/12/20 09:53:39;0.00;0.00;0.62;0.00;0.00;0.62;6.63;6.00;;;18.90;29.40;;;;;;2233852;62;20585;-65
2020/12/20 09:56:25;0.00;0.00;0.62;0.00;0.00;0.62;7.07;5.60;;;18.90;29.50;;;;;;2233958;62;20430;-65
2020/12/20 09:59:09;0.00;0.00;0.62;0.00;0.00;0.62;6.57;5.40;;;18.80;29.40;;;;;;2234036;62;20369;-65
2020/12/20 10:01:54;0.00;0.00;0.62;0.00;0.00;0.62;6.53;5.67;;;18.80;29.50;;;;;;2233761;62;20417;-64
2020/12/20 10:04:38;0.00;0.00;0.62;0.00;0.00;0.62;6.70;6.00;;;18.90;29.60;;;;;;2233899;62;20406;-70
2020/12/20 10:07:23;0.00;0.00;0.62;0.00;0.00;0.62;10.13;6.10;;;18.80;29.60;;;;;;2233871;62;20442;-67
2020/12/20 10:10:08;0.00;0.00;0.62;0.00;0.00;0.62;5.90;5.30;;;18.90;29.70;;;;;;2233738;62;20716;-66
2020/12/20 10:12:55;0.00;0.00;0.62;0.00;0.00;0.62;5.83;5.20;;;18.80;29.60;;;;;;2233851;62;20440;-64
2020/12/20 10:15:39;0.00;0.00;0.62;0.00;0.00;0.62;5.70;5.20;;;18.90;29.70;;;;;;2233632;62;20377;-65
2020/12/20 10:18:24;0.00;0.00;0.62;0.00;0.00;0.62;5.43;4.93;;;18.90;29.70;;;;;;2233904;62;20397;-64
2020/12/20 10:21:12;0.00;0.00;0.62;0.00;0.00;0.62;4.33;3.93;;;18.90;29.70;;;;;;2234027;62;20369;-64
2020/12/20 10:23:57;0.00;0.00;0.62;0.00;0.00;0.62;4.90;4.40;;;18.90;29.80;;;;;;2233631;62;20369;-65
2020/12/20 10:26:44;0.00;0.00;0.62;0.00;0.00;0.62;6.73;4.47;;;19.00;29.80;;;;;;2233852;62;20392;-67
2020/12/20 10:29:29;0.00;0.00;0.62;0.00;0.00;0.62;5.17;4.03;;;19.00;29.80;;;;;;2233952;62;20608;-67
2020/12/20 10:32:14;0.00;0.00;0.62;0.00;0.00;0.62;4.63;3.90;;;19.10;29.90;;;;;;2233987;62;20381;-67
2020/12/20 10:34:59;0.00;0.00;0.62;0.00;0.00;0.62;4.00;3.60;;;19.10;29.90;;;;;;2233900;62;20413;-68
2020/12/20 10:37:44;0.00;0.00;0.62;0.00;0.00;0.62;5.97;3.97;;;19.10;29.80;;;;;;2233600;62;20561;-66
2020/12/20 10:40:29;0.00;0.00;0.62;0.00;0.00;0.62;4.90;4.07;;;19.20;29.90;;;;;;2233864;62;20404;-69
2020/12/20 10:43:13;0.00;0.00;0.62;0.00;0.00;0.62;3.73;3.30;;;19.20;29.90;;;;;;2233918;62;20393;-67
2020/12/20 10:45:59;0.00;0.00;0.62;0.00;0.00;0.62;3.57;3.27;;;19.30;29.90;;;;;;2233445;62;20584;-66
2020/12/20 10:48:44;0.00;0.00;0.62;0.00;0.00;0.62;4.03;3.43;;;19.30;29.90;;;;;;2233869;62;20369;-65
2020/12/20 10:51:28;0.00;0.00;0.62;0.00;0.00;0.62;3.73;3.33;;;19.30;29.90;;;;;;2233841;62;20380;-69
2020/12/20 10:54:13;0.00;0.00;0.62;0.00;0.00;0.62;4.37;3.20;;;19.40;30.00;;;;;;2233705;62;20381;-70
2020/12/20 10:56:59;0.00;0.00;0.62;0.00;0.00;0.62;4.50;3.73;;;19.40;30.50;;;;;;2233874;62;20437;-67
2020/12/20 10:59:44;0.00;0.00;0.62;0.00;0.00;0.62;3.70;3.40;;;19.50;30.50;;;;;;2232840;62;20780;-67
2020/12/20 11:02:29;0.00;0.00;0.62;0.00;0.00;0.62;3.33;3.00;;;19.50;29.90;;;;;;2233782;62;20744;-68
2020/12/20 11:05:14;0.00;0.00;0.62;0.00;0.00;0.62;3.90;3.33;;;19.60;30.00;;;;;;2458953;54;20370;-68